sensor_id;sensor_type;location;lat;lon;timestamp;P1;durP1;ratioP1;P2;durP2;ratioP2
14472;SDS011;7322;50.872;4.386;2022-12-15T00:01:09;16.20;;;12.03;;
14472;SDS011;7322;50.872;4.386;2022-12-15T00:03:53;14.90;;;11.57;;
14472;SDS011;7322;50.872;4.386;2022-12-15T00:06:38;14.07;;;10.93;;
14472;SDS011;7322;50.872;4.386;2022-12-15T00:09:22;14.27;;;11.03;;
14472;SDS011;7322;50.872;4.386;2022-12-15T00:12:06;16.13;;;10.93;;
14472;SDS011;7322;50.872;4.386;2022-12-15T00:14:52;14.77;;;11.60;;
14472;SDS011;7322;50.872;4.386;2022-12-15T00:17:37;14.57;;;11.30;;
14472;SDS011;7322;50.872;4.386;2022-12-15T00:20:22;14.00;;;11.00;;
14472;SDS011;7322;50.872;4.386;2022-12-15T00:23:07;13.17;;;10.33;;
14472;SDS011;7322;50.872;4.386;2022-12-15T00:25:52;13.67;;;10.83;;
14472;SDS011;7322;50.872;4.386;2022-12-15T00:28:37;14.80;;;11.00;;
14472;SDS011;7322;50.872;4.386;2022-12-15T00:31:22;13.57;;;10.53;;
14472;SDS011;7322;50.872;4.386;2022-12-15T00:34:08;13.87;;;10.80;;
14472;SDS011;7322;50.872;4.386;2022-12-15T00:36:53;15.77;;;10.73;;
14472;SDS011;7322;50.872;4.386;2022-12-15T00:39:37;14.47;;;10.80;;
14472;SDS011;7322;50.872;4.386;2022-12-15T00:42:05;13.60;;;10.03;;
14472;SDS011;7322;50.872;4.386;2022-12-15T00:44:32;14.57;;;10.90;;
14472;SDS011;7322;50.872;4.386;2022-12-15T00:46:59;13.23;;;10.40;;
14472;SDS011;7322;50.872;4.386;2022-12-15T00:49:27;13.07;;;10.67;;
14472;SDS011;7322;50.872;4.386;2022-12-15T00:52:13;14.07;;;10.23;;
14472;SDS011;7322;50.872;4.386;2022-12-15T00:55:00;12.63;;;10.53;;
14472;SDS011;7322;50.872;4.386;2022-12-15T00:57:45;13.27;;;10.43;;
14472;SDS011;7322;50.872;4.386;2022-12-15T01:00:30;11.27;;;9.73;;
14472;SDS011;7322;50.872;4.386;2022-12-15T01:03:17;13.20;;;10.57;;
14472;SDS011;7322;50.872;4.386;2022-12-15T01:06:05;12.63;;;10.50;;
14472;SDS011;7322;50.872;4.386;2022-12-15T01:08:50;12.07;;;10.17;;
14472;SDS011;7322;50.872;4.386;2022-12-15T01:11:34;12.00;;;10.20;;
14472;SDS011;7322;50.872;4.386;2022-12-15T01:14:19;13.37;;;10.20;;
14472;SDS011;7322;50.872;4.386;2022-12-15T01:17:04;13.43;;;10.47;;
14472;SDS011;7322;50.872;4.386;2022-12-15T01:19:48;11.80;;;9.83;;
14472;SDS011;7322;50.872;4.386;2022-12-15T01:22:36;12.07;;;9.97;;
14472;SDS011;7322;50.872;4.386;2022-12-15T01:25:03;13.73;;;10.60;;
14472;SDS011;7322;50.872;4.386;2022-12-15T01:27:31;11.97;;;9.40;;
14472;SDS011;7322;50.872;4.386;2022-12-15T01:29:59;12.97;;;10.67;;
14472;SDS011;7322;50.872;4.386;2022-12-15T01:32:26;11.83;;;10.03;;
14472;SDS011;7322;50.872;4.386;2022-12-15T01:34:53;12.37;;;10.27;;
14472;SDS011;7322;50.872;4.386;2022-12-15T01:37:20;13.27;;;9.63;;
14472;SDS011;7322;50.872;4.386;2022-12-15T01:39:48;11.70;;;9.80;;
14472;SDS011;7322;50.872;4.386;2022-12-15T01:42:33;13.90;;;10.40;;
14472;SDS011;7322;50.872;4.386;2022-12-15T01:48:03;12.10;;;10.10;;
14472;SDS011;7322;50.872;4.386;2022-12-15T01:50:33;12.13;;;10.10;;
14472;SDS011;7322;50.872;4.386;2022-12-15T01:53:05;11.70;;;9.97;;
14472;SDS011;7322;50.872;4.386;2022-12-15T01:55:33;12.63;;;9.83;;
14472;SDS011;7322;50.872;4.386;2022-12-15T01:58:02;12.17;;;10.53;;
14472;SDS011;7322;50.872;4.386;2022-12-15T02:00:32;12.70;;;9.80;;
14472;SDS011;7322;50.872;4.386;2022-12-15T02:02:59;11.03;;;9.63;;
14472;SDS011;7322;50.872;4.386;2022-12-15T02:05:27;12.67;;;9.83;;
14472;SDS011;7322;50.872;4.386;2022-12-15T02:07:54;12.37;;;9.90;;
14472;SDS011;7322;50.872;4.386;2022-12-15T02:10:21;12.77;;;10.13;;
14472;SDS011;7322;50.872;4.386;2022-12-15T02:12:55;12.03;;;9.63;;
14472;SDS011;7322;50.872;4.386;2022-12-15T02:15:32;11.50;;;10.17;;
14472;SDS011;7322;50.872;4.386;2022-12-15T02:18:06;11.10;;;9.20;;
14472;SDS011;7322;50.872;4.386;2022-12-15T02:20:40;11.53;;;9.40;;
14472;SDS011;7322;50.872;4.386;2022-12-15T02:23:30;13.37;;;10.43;;
14472;SDS011;7322;50.872;4.386;2022-12-15T02:26:24;11.30;;;9.40;;
14472;SDS011;7322;50.872;4.386;2022-12-15T02:29:32;11.73;;;8.87;;
14472;SDS011;7322;50.872;4.386;2022-12-15T02:32:19;11.53;;;9.10;;
14472;SDS011;7322;50.872;4.386;2022-12-15T02:34:51;11.97;;;9.67;;
14472;SDS011;7322;50.872;4.386;2022-12-15T02:37:22;11.47;;;9.47;;
14472;SDS011;7322;50.872;4.386;2022-12-15T02:39:51;11.47;;;9.47;;
14472;SDS011;7322;50.872;4.386;2022-12-15T02:42:18;9.77;;;8.77;;
14472;SDS011;7322;50.872;4.386;2022-12-15T02:44:47;13.17;;;9.70;;
14472;SDS011;7322;50.872;4.386;2022-12-15T02:47:21;11.27;;;9.17;;
14472;SDS011;7322;50.872;4.386;2022-12-15T02:50:18;10.83;;;8.70;;
14472;SDS011;7322;50.872;4.386;2022-12-15T02:53:14;11.03;;;8.63;;
14472;SDS011;7322;50.872;4.386;2022-12-15T02:55:54;11.40;;;9.23;;
14472;SDS011;7322;50.872;4.386;2022-12-15T02:58:26;10.43;;;9.13;;
14472;SDS011;7322;50.872;4.386;2022-12-15T03:00:58;11.20;;;9.10;;
14472;SDS011;7322;50.872;4.386;2022-12-15T03:03:31;11.37;;;9.07;;
14472;SDS011;7322;50.872;4.386;2022-12-15T03:06:01;11.27;;;9.63;;
14472;SDS011;7322;50.872;4.386;2022-12-15T03:08:29;11.17;;;9.20;;
14472;SDS011;7322;50.872;4.386;2022-12-15T03:10:56;10.53;;;9.40;;
14472;SDS011;7322;50.872;4.386;2022-12-15T03:13:23;12.23;;;8.97;;
14472;SDS011;7322;50.872;4.386;2022-12-15T03:15:50;10.57;;;9.33;;
14472;SDS011;7322;50.872;4.386;2022-12-15T03:18:18;10.10;;;8.17;;
14472;SDS011;7322;50.872;4.386;2022-12-15T03:20:47;10.10;;;9.10;;
14472;SDS011;7322;50.872;4.386;2022-12-15T03:23:14;10.57;;;9.13;;
14472;SDS011;7322;50.872;4.386;2022-12-15T03:25:42;9.63;;;8.37;;
14472;SDS011;7322;50.872;4.386;2022-12-15T03:28:11;10.70;;;8.93;;
14472;SDS011;7322;50.872;4.386;2022-12-15T03:30:38;10.57;;;8.70;;
14472;SDS011;7322;50.872;4.386;2022-12-15T03:33:05;9.37;;;8.37;;
14472;SDS011;7322;50.872;4.386;2022-12-15T03:35:32;9.20;;;8.20;;
14472;SDS011;7322;50.872;4.386;2022-12-15T03:38:02;10.90;;;8.77;;
14472;SDS011;7322;50.872;4.386;2022-12-15T03:40:29;10.00;;;8.57;;
14472;SDS011;7322;50.872;4.386;2022-12-15T03:42:56;10.73;;;8.63;;
14472;SDS011;7322;50.872;4.386;2022-12-15T03:45:23;9.40;;;8.43;;
14472;SDS011;7322;50.872;4.386;2022-12-15T03:47:52;10.50;;;8.73;;
14472;SDS011;7322;50.872;4.386;2022-12-15T03:50:20;9.73;;;8.67;;
14472;SDS011;7322;50.872;4.386;2022-12-15T03:52:49;10.20;;;8.87;;
14472;SDS011;7322;50.872;4.386;2022-12-15T03:55:18;10.10;;;9.00;;
14472;SDS011;7322;50.872;4.386;2022-12-15T03:57:46;8.77;;;7.87;;
14472;SDS011;7322;50.872;4.386;2022-12-15T04:00:13;10.07;;;8.97;;
14472;SDS011;7322;50.872;4.386;2022-12-15T04:02:42;9.53;;;8.20;;
14472;SDS011;7322;50.872;4.386;2022-12-15T04:05:11;10.00;;;8.60;;
14472;SDS011;7322;50.872;4.386;2022-12-15T04:07:41;10.17;;;8.53;;
14472;SDS011;7322;50.872;4.386;2022-12-15T04:10:09;10.13;;;9.00;;
14472;SDS011;7322;50.872;4.386;2022-12-15T04:12:39;9.50;;;8.50;;
14472;SDS011;7322;50.872;4.386;2022-12-15T04:15:06;9.57;;;8.00;;
14472;SDS011;7322;50.872;4.386;2022-12-15T04:17:35;9.30;;;8.00;;
14472;SDS011;7322;50.872;4.386;2022-12-15T04:20:02;9.37;;;8.20;;
14472;SDS011;7322;50.872;4.386;2022-12-15T04:22:34;9.13;;;8.23;;
14472;SDS011;7322;50.872;4.386;2022-12-15T04:25:03;8.93;;;8.03;;
14472;SDS011;7322;50.872;4.386;2022-12-15T04:27:51;10.43;;;8.13;;
14472;SDS011;7322;50.872;4.386;2022-12-15T04:30:36;9.27;;;8.27;;
14472;SDS011;7322;50.872;4.386;2022-12-15T04:33:21;8.97;;;7.93;;
14472;SDS011;7322;50.872;4.386;2022-12-15T04:36:07;10.07;;;8.00;;
14472;SDS011;7322;50.872;4.386;2022-12-15T04:38:54;9.30;;;8.37;;
14472;SDS011;7322;50.872;4.386;2022-12-15T04:41:40;9.47;;;7.93;;
14472;SDS011;7322;50.872;4.386;2022-12-15T04:44:26;9.37;;;7.80;;
14472;SDS011;7322;50.872;4.386;2022-12-15T04:47:10;8.50;;;7.47;;
14472;SDS011;7322;50.872;4.386;2022-12-15T04:49:55;9.37;;;7.93;;
14472;SDS011;7322;50.872;4.386;2022-12-15T04:52:49;9.33;;;8.00;;
14472;SDS011;7322;50.872;4.386;2022-12-15T05:02:18;8.57;;;7.67;;
14472;SDS011;7322;50.872;4.386;2022-12-15T05:05:03;9.80;;;8.00;;
14472;SDS011;7322;50.872;4.386;2022-12-15T05:07:48;8.47;;;7.53;;
14472;SDS011;7322;50.872;4.386;2022-12-15T05:10:32;8.77;;;7.70;;
14472;SDS011;7322;50.872;4.386;2022-12-15T05:13:17;9.40;;;7.53;;
14472;SDS011;7322;50.872;4.386;2022-12-15T05:16:03;9.27;;;7.80;;
14472;SDS011;7322;50.872;4.386;2022-12-15T05:18:49;9.03;;;7.70;;
14472;SDS011;7322;50.872;4.386;2022-12-15T05:21:33;8.33;;;7.40;;
14472;SDS011;7322;50.872;4.386;2022-12-15T05:24:18;8.17;;;7.30;;
14472;SDS011;7322;50.872;4.386;2022-12-15T05:27:02;9.43;;;7.80;;
14472;SDS011;7322;50.872;4.386;2022-12-15T05:29:47;7.87;;;7.07;;
14472;SDS011;7322;50.872;4.386;2022-12-15T05:32:31;8.43;;;7.53;;
14472;SDS011;7322;50.872;4.386;2022-12-15T05:34:59;9.57;;;8.23;;
14472;SDS011;7322;50.872;4.386;2022-12-15T05:37:26;8.97;;;7.80;;
14472;SDS011;7322;50.872;4.386;2022-12-15T05:39:54;8.53;;;7.33;;
14472;SDS011;7322;50.872;4.386;2022-12-15T05:42:21;8.37;;;7.47;;
14472;SDS011;7322;50.872;4.386;2022-12-15T05:44:48;8.37;;;7.50;;
14472;SDS011;7322;50.872;4.386;2022-12-15T05:47:15;8.60;;;7.23;;
14472;SDS011;7322;50.872;4.386;2022-12-15T05:49:42;8.27;;;7.33;;
14472;SDS011;7322;50.872;4.386;2022-12-15T05:52:10;8.83;;;7.30;;
14472;SDS011;7322;50.872;4.386;2022-12-15T05:54:37;8.63;;;7.40;;
14472;SDS011;7322;50.872;4.386;2022-12-15T05:57:04;7.97;;;7.17;;
14472;SDS011;7322;50.872;4.386;2022-12-15T05:59:32;8.03;;;6.90;;
14472;SDS011;7322;50.872;4.386;2022-12-15T06:01:58;8.23;;;6.97;;
14472;SDS011;7322;50.872;4.386;2022-12-15T06:04:25;7.83;;;6.80;;
14472;SDS011;7322;50.872;4.386;2022-12-15T06:06:54;8.27;;;6.50;;
14472;SDS011;7322;50.872;4.386;2022-12-15T06:09:24;7.83;;;6.70;;
14472;SDS011;7322;50.872;4.386;2022-12-15T06:11:51;7.63;;;6.83;;
14472;SDS011;7322;50.872;4.386;2022-12-15T06:14:19;8.87;;;6.90;;
14472;SDS011;7322;50.872;4.386;2022-12-15T06:16:46;7.63;;;6.80;;
14472;SDS011;7322;50.872;4.386;2022-12-15T06:19:13;7.23;;;6.47;;
14472;SDS011;7322;50.872;4.386;2022-12-15T06:21:42;7.43;;;6.50;;
14472;SDS011;7322;50.872;4.386;2022-12-15T06:24:09;7.33;;;6.63;;
14472;SDS011;7322;50.872;4.386;2022-12-15T06:26:37;7.60;;;6.80;;
14472;SDS011;7322;50.872;4.386;2022-12-15T06:29:06;7.27;;;6.50;;
14472;SDS011;7322;50.872;4.386;2022-12-15T06:31:40;7.43;;;6.67;;
14472;SDS011;7322;50.872;4.386;2022-12-15T06:34:09;6.93;;;6.23;;
14472;SDS011;7322;50.872;4.386;2022-12-15T06:36:38;6.83;;;6.13;;
14472;SDS011;7322;50.872;4.386;2022-12-15T06:39:06;6.23;;;5.63;;
14472;SDS011;7322;50.872;4.386;2022-12-15T06:41:34;7.13;;;6.43;;
14472;SDS011;7322;50.872;4.386;2022-12-15T06:44:03;6.70;;;5.90;;
14472;SDS011;7322;50.872;4.386;2022-12-15T06:46:30;7.87;;;6.30;;
14472;SDS011;7322;50.872;4.386;2022-12-15T06:48:59;6.50;;;5.90;;
14472;SDS011;7322;50.872;4.386;2022-12-15T06:51:26;8.30;;;5.87;;
14472;SDS011;7322;50.872;4.386;2022-12-15T06:53:53;7.30;;;6.60;;
14472;SDS011;7322;50.872;4.386;2022-12-15T06:56:21;6.60;;;6.00;;
14472;SDS011;7322;50.872;4.386;2022-12-15T06:58:50;6.97;;;5.93;;
14472;SDS011;7322;50.872;4.386;2022-12-15T07:01:21;7.57;;;5.87;;
14472;SDS011;7322;50.872;4.386;2022-12-15T07:03:48;7.73;;;6.20;;
14472;SDS011;7322;50.872;4.386;2022-12-15T07:06:16;6.67;;;5.97;;
14472;SDS011;7322;50.872;4.386;2022-12-15T07:08:43;7.37;;;5.93;;
14472;SDS011;7322;50.872;4.386;2022-12-15T07:11:16;6.90;;;6.20;;
14472;SDS011;7322;50.872;4.386;2022-12-15T07:13:48;6.53;;;5.83;;
14472;SDS011;7322;50.872;4.386;2022-12-15T07:16:16;6.77;;;5.67;;
14472;SDS011;7322;50.872;4.386;2022-12-15T07:18:44;8.63;;;6.37;;
14472;SDS011;7322;50.872;4.386;2022-12-15T07:21:11;8.47;;;6.00;;
14472;SDS011;7322;50.872;4.386;2022-12-15T07:23:38;7.37;;;6.57;;
14472;SDS011;7322;50.872;4.386;2022-12-15T07:26:06;8.17;;;6.67;;
14472;SDS011;7322;50.872;4.386;2022-12-15T07:28:34;8.87;;;6.03;;
14472;SDS011;7322;50.872;4.386;2022-12-15T07:31:02;7.07;;;6.37;;
14472;SDS011;7322;50.872;4.386;2022-12-15T07:33:30;7.27;;;6.03;;
14472;SDS011;7322;50.872;4.386;2022-12-15T07:35:59;7.83;;;6.47;;
14472;SDS011;7322;50.872;4.386;2022-12-15T07:38:27;7.87;;;6.13;;
14472;SDS011;7322;50.872;4.386;2022-12-15T07:40:58;8.17;;;6.07;;
14472;SDS011;7322;50.872;4.386;2022-12-15T07:43:26;8.10;;;6.43;;
14472;SDS011;7322;50.872;4.386;2022-12-15T07:45:55;6.60;;;5.90;;
14472;SDS011;7322;50.872;4.386;2022-12-15T07:48:22;8.73;;;6.10;;
14472;SDS011;7322;50.872;4.386;2022-12-15T07:51:03;6.77;;;5.73;;
14472;SDS011;7322;50.872;4.386;2022-12-15T07:56:33;8.57;;;5.97;;
14472;SDS011;7322;50.872;4.386;2022-12-15T07:59:06;8.17;;;6.40;;
14472;SDS011;7322;50.872;4.386;2022-12-15T08:01:34;7.63;;;5.93;;
14472;SDS011;7322;50.872;4.386;2022-12-15T08:07:00;7.17;;;5.50;;
14472;SDS011;7322;50.872;4.386;2022-12-15T08:09:42;7.93;;;6.10;;
14472;SDS011;7322;50.872;4.386;2022-12-15T08:21:04;10.07;;;6.23;;
14472;SDS011;7322;50.872;4.386;2022-12-15T08:30:13;7.87;;;6.33;;
14472;SDS011;7322;50.872;4.386;2022-12-15T08:38:28;8.13;;;5.97;;
14472;SDS011;7322;50.872;4.386;2022-12-15T08:59:42;7.77;;;6.40;;
14472;SDS011;7322;50.872;4.386;2022-12-15T09:02:15;8.23;;;6.10;;
14472;SDS011;7322;50.872;4.386;2022-12-15T09:04:42;7.40;;;6.50;;
14472;SDS011;7322;50.872;4.386;2022-12-15T09:07:15;8.37;;;6.30;;
14472;SDS011;7322;50.872;4.386;2022-12-15T09:09:57;8.10;;;6.30;;
14472;SDS011;7322;50.872;4.386;2022-12-15T09:15:34;8.67;;;6.10;;
14472;SDS011;7322;50.872;4.386;2022-12-15T09:18:01;8.50;;;6.13;;
14472;SDS011;7322;50.872;4.386;2022-12-15T09:20:30;7.17;;;6.33;;
14472;SDS011;7322;50.872;4.386;2022-12-15T09:22:57;8.10;;;6.53;;
14472;SDS011;7322;50.872;4.386;2022-12-15T09:25:25;7.03;;;6.07;;
14472;SDS011;7322;50.872;4.386;2022-12-15T09:27:52;8.50;;;6.37;;
14472;SDS011;7322;50.872;4.386;2022-12-15T09:30:21;7.23;;;6.50;;
14472;SDS011;7322;50.872;4.386;2022-12-15T09:32:48;9.00;;;6.50;;
14472;SDS011;7322;50.872;4.386;2022-12-15T09:35:15;6.77;;;6.07;;
14472;SDS011;7322;50.872;4.386;2022-12-15T09:37:42;8.93;;;6.60;;
14472;SDS011;7322;50.872;4.386;2022-12-15T09:40:10;9.07;;;6.67;;
14472;SDS011;7322;50.872;4.386;2022-12-15T09:42:40;8.10;;;6.53;;
14472;SDS011;7322;50.872;4.386;2022-12-15T09:45:23;8.00;;;6.53;;
14472;SDS011;7322;50.872;4.386;2022-12-15T09:47:57;7.53;;;6.53;;
14472;SDS011;7322;50.872;4.386;2022-12-15T09:50:28;9.00;;;6.43;;
14472;SDS011;7322;50.872;4.386;2022-12-15T09:52:59;8.90;;;6.50;;
14472;SDS011;7322;50.872;4.386;2022-12-15T09:55:28;7.73;;;6.47;;
14472;SDS011;7322;50.872;4.386;2022-12-15T09:57:58;8.83;;;6.77;;
14472;SDS011;7322;50.872;4.386;2022-12-15T10:00:29;7.80;;;7.00;;
14472;SDS011;7322;50.872;4.386;2022-12-15T10:06:04;7.23;;;6.20;;
14472;SDS011;7322;50.872;4.386;2022-12-15T10:08:36;7.93;;;6.50;;
14472;SDS011;7322;50.872;4.386;2022-12-15T10:11:13;8.20;;;6.87;;
14472;SDS011;7322;50.872;4.386;2022-12-15T10:13:46;9.03;;;6.40;;
14472;SDS011;7322;50.872;4.386;2022-12-15T10:16:19;8.20;;;7.07;;
14472;SDS011;7322;50.872;4.386;2022-12-15T10:18:53;9.47;;;6.70;;
14472;SDS011;7322;50.872;4.386;2022-12-15T10:21:27;9.10;;;6.50;;
14472;SDS011;7322;50.872;4.386;2022-12-15T10:23:56;7.90;;;6.80;;
14472;SDS011;7322;50.872;4.386;2022-12-15T10:26:28;8.53;;;6.83;;
14472;SDS011;7322;50.872;4.386;2022-12-15T10:29:02;8.43;;;6.77;;
14472;SDS011;7322;50.872;4.386;2022-12-15T10:31:42;9.33;;;6.50;;
14472;SDS011;7322;50.872;4.386;2022-12-15T10:34:17;7.47;;;6.53;;
14472;SDS011;7322;50.872;4.386;2022-12-15T10:36:52;7.87;;;6.90;;
14472;SDS011;7322;50.872;4.386;2022-12-15T10:39:21;7.63;;;6.70;;
14472;SDS011;7322;50.872;4.386;2022-12-15T10:44:42;9.37;;;6.90;;
14472;SDS011;7322;50.872;4.386;2022-12-15T10:47:16;7.90;;;7.00;;
14472;SDS011;7322;50.872;4.386;2022-12-15T10:49:47;8.40;;;7.13;;
14472;SDS011;7322;50.872;4.386;2022-12-15T10:52:18;6.67;;;5.97;;
14472;SDS011;7322;50.872;4.386;2022-12-15T10:54:50;8.10;;;7.00;;
14472;SDS011;7322;50.872;4.386;2022-12-15T10:57:20;8.17;;;7.23;;
14472;SDS011;7322;50.872;4.386;2022-12-15T10:59:52;7.50;;;6.70;;
14472;SDS011;7322;50.872;4.386;2022-12-15T11:02:28;7.80;;;6.87;;
14472;SDS011;7322;50.872;4.386;2022-12-15T11:04:59;7.90;;;6.77;;
14472;SDS011;7322;50.872;4.386;2022-12-15T11:07:30;7.57;;;6.67;;
14472;SDS011;7322;50.872;4.386;2022-12-15T11:10:02;8.77;;;6.43;;
14472;SDS011;7322;50.872;4.386;2022-12-15T11:12:39;8.10;;;6.83;;
14472;SDS011;7322;50.872;4.386;2022-12-15T11:18:09;7.47;;;6.43;;
14472;SDS011;7322;50.872;4.386;2022-12-15T11:20:43;8.23;;;6.97;;
14472;SDS011;7322;50.872;4.386;2022-12-15T11:23:17;9.97;;;7.43;;
14472;SDS011;7322;50.872;4.386;2022-12-15T11:25:51;7.33;;;6.63;;
14472;SDS011;7322;50.872;4.386;2022-12-15T11:28:23;7.47;;;6.77;;
14472;SDS011;7322;50.872;4.386;2022-12-15T11:30:59;8.33;;;7.33;;
14472;SDS011;7322;50.872;4.386;2022-12-15T11:33:33;7.83;;;6.90;;
14472;SDS011;7322;50.872;4.386;2022-12-15T11:36:03;8.43;;;6.40;;
14472;SDS011;7322;50.872;4.386;2022-12-15T11:38:40;9.07;;;7.20;;
14472;SDS011;7322;50.872;4.386;2022-12-15T11:41:12;7.93;;;6.97;;
14472;SDS011;7322;50.872;4.386;2022-12-15T11:43:53;8.00;;;7.07;;
14472;SDS011;7322;50.872;4.386;2022-12-15T11:46:35;8.83;;;7.30;;
14472;SDS011;7322;50.872;4.386;2022-12-15T11:49:13;8.20;;;7.20;;
14472;SDS011;7322;50.872;4.386;2022-12-15T11:52:08;8.83;;;7.57;;
14472;SDS011;7322;50.872;4.386;2022-12-15T11:54:42;8.60;;;7.60;;
14472;SDS011;7322;50.872;4.386;2022-12-15T11:57:19;7.90;;;7.10;;
14472;SDS011;7322;50.872;4.386;2022-12-15T12:00:06;8.27;;;6.97;;
14472;SDS011;7322;50.872;4.386;2022-12-15T12:02:42;9.20;;;7.20;;
14472;SDS011;7322;50.872;4.386;2022-12-15T12:05:39;8.57;;;7.33;;
14472;SDS011;7322;50.872;4.386;2022-12-15T12:08:17;7.57;;;6.77;;
14472;SDS011;7322;50.872;4.386;2022-12-15T12:10:56;8.43;;;6.93;;
14472;SDS011;7322;50.872;4.386;2022-12-15T12:13:29;8.93;;;7.83;;
14472;SDS011;7322;50.872;4.386;2022-12-15T12:16:06;8.43;;;7.30;;
14472;SDS011;7322;50.872;4.386;2022-12-15T12:18:41;8.40;;;7.20;;
14472;SDS011;7322;50.872;4.386;2022-12-15T12:21:17;8.27;;;7.40;;
14472;SDS011;7322;50.872;4.386;2022-12-15T12:23:50;9.90;;;7.97;;
14472;SDS011;7322;50.872;4.386;2022-12-15T12:26:22;8.07;;;7.10;;
14472;SDS011;7322;50.872;4.386;2022-12-15T12:28:55;8.37;;;7.43;;
14472;SDS011;7322;50.872;4.386;2022-12-15T12:31:39;9.97;;;7.53;;
14472;SDS011;7322;50.872;4.386;2022-12-15T12:34:14;8.60;;;7.20;;
14472;SDS011;7322;50.872;4.386;2022-12-15T12:36:49;8.23;;;7.43;;
14472;SDS011;7322;50.872;4.386;2022-12-15T12:39:20;8.47;;;7.13;;
14472;SDS011;7322;50.872;4.386;2022-12-15T12:41:50;9.87;;;8.13;;
14472;SDS011;7322;50.872;4.386;2022-12-15T12:44:26;8.73;;;7.83;;
14472;SDS011;7322;50.872;4.386;2022-12-15T12:46:57;9.37;;;7.30;;
14472;SDS011;7322;50.872;4.386;2022-12-15T12:49:32;9.90;;;7.80;;
14472;SDS011;7322;50.872;4.386;2022-12-15T12:52:13;9.03;;;7.37;;
14472;SDS011;7322;50.872;4.386;2022-12-15T12:54:50;8.57;;;7.67;;
14472;SDS011;7322;50.872;4.386;2022-12-15T12:57:34;8.97;;;7.27;;
14472;SDS011;7322;50.872;4.386;2022-12-15T13:00:04;9.07;;;7.70;;
14472;SDS011;7322;50.872;4.386;2022-12-15T13:02:44;8.87;;;7.67;;
14472;SDS011;7322;50.872;4.386;2022-12-15T13:05:34;8.97;;;7.80;;
14472;SDS011;7322;50.872;4.386;2022-12-15T13:08:24;8.17;;;7.23;;
14472;SDS011;7322;50.872;4.386;2022-12-15T13:14:20;8.73;;;7.67;;
14472;SDS011;7322;50.872;4.386;2022-12-15T13:17:04;9.63;;;7.93;;
14472;SDS011;7322;50.872;4.386;2022-12-15T13:22:52;10.20;;;7.70;;
14472;SDS011;7322;50.872;4.386;2022-12-15T13:25:32;8.10;;;6.90;;
14472;SDS011;7322;50.872;4.386;2022-12-15T13:28:17;9.00;;;7.83;;
14472;SDS011;7322;50.872;4.386;2022-12-15T13:33:49;8.43;;;7.37;;
14472;SDS011;7322;50.872;4.386;2022-12-15T13:42:29;8.13;;;7.33;;
14472;SDS011;7322;50.872;4.386;2022-12-15T13:45:27;8.87;;;7.53;;
14472;SDS011;7322;50.872;4.386;2022-12-15T13:48:11;9.00;;;7.60;;
14472;SDS011;7322;50.872;4.386;2022-12-15T13:50:51;7.97;;;7.13;;
14472;SDS011;7322;50.872;4.386;2022-12-15T13:53:27;9.27;;;8.20;;
14472;SDS011;7322;50.872;4.386;2022-12-15T13:56:04;8.83;;;7.90;;
14472;SDS011;7322;50.872;4.386;2022-12-15T13:58:46;8.30;;;7.40;;
14472;SDS011;7322;50.872;4.386;2022-12-15T14:01:20;8.17;;;7.37;;
14472;SDS011;7322;50.872;4.386;2022-12-15T14:03:57;9.33;;;8.03;;
14472;SDS011;7322;50.872;4.386;2022-12-15T14:06:29;8.63;;;7.73;;
14472;SDS011;7322;50.872;4.386;2022-12-15T14:12:12;8.43;;;7.50;;
14472;SDS011;7322;50.872;4.386;2022-12-15T14:14:44;9.07;;;7.50;;
14472;SDS011;7322;50.872;4.386;2022-12-15T14:17:14;8.30;;;7.47;;
14472;SDS011;7322;50.872;4.386;2022-12-15T14:19:43;8.23;;;7.40;;
14472;SDS011;7322;50.872;4.386;2022-12-15T14:22:17;8.30;;;7.37;;
14472;SDS011;7322;50.872;4.386;2022-12-15T14:24:48;9.90;;;7.80;;
14472;SDS011;7322;50.872;4.386;2022-12-15T14:27:22;7.87;;;7.07;;
14472;SDS011;7322;50.872;4.386;2022-12-15T14:32:36;9.83;;;8.13;;
14472;SDS011;7322;50.872;4.386;2022-12-15T14:35:05;9.23;;;6.93;;
14472;SDS011;7322;50.872;4.386;2022-12-15T14:37:37;8.30;;;7.43;;
14472;SDS011;7322;50.872;4.386;2022-12-15T14:40:05;8.70;;;7.60;;
14472;SDS011;7322;50.872;4.386;2022-12-15T14:42:38;9.20;;;7.30;;
14472;SDS011;7322;50.872;4.386;2022-12-15T14:45:15;7.70;;;6.83;;
14472;SDS011;7322;50.872;4.386;2022-12-15T14:47:48;7.17;;;6.47;;
14472;SDS011;7322;50.872;4.386;2022-12-15T14:50:18;7.97;;;6.87;;
14472;SDS011;7322;50.872;4.386;2022-12-15T14:52:51;7.73;;;6.40;;
14472;SDS011;7322;50.872;4.386;2022-12-15T14:55:30;6.90;;;6.20;;
14472;SDS011;7322;50.872;4.386;2022-12-15T14:57:59;7.67;;;6.63;;
14472;SDS011;7322;50.872;4.386;2022-12-15T15:00:29;7.57;;;6.17;;
14472;SDS011;7322;50.872;4.386;2022-12-15T15:03:17;7.10;;;6.40;;
14472;SDS011;7322;50.872;4.386;2022-12-15T15:05:47;7.77;;;6.47;;
14472;SDS011;7322;50.872;4.386;2022-12-15T15:08:18;7.17;;;6.20;;
14472;SDS011;7322;50.872;4.386;2022-12-15T15:10:51;7.00;;;6.30;;
14472;SDS011;7322;50.872;4.386;2022-12-15T15:13:19;7.00;;;6.20;;
14472;SDS011;7322;50.872;4.386;2022-12-15T15:15:53;7.20;;;6.50;;
14472;SDS011;7322;50.872;4.386;2022-12-15T15:18:26;6.47;;;5.73;;
14472;SDS011;7322;50.872;4.386;2022-12-15T15:20:55;7.20;;;6.47;;
14472;SDS011;7322;50.872;4.386;2022-12-15T15:23:26;6.67;;;5.90;;
14472;SDS011;7322;50.872;4.386;2022-12-15T15:25:53;7.10;;;5.93;;
14472;SDS011;7322;50.872;4.386;2022-12-15T15:28:22;7.27;;;6.17;;
14472;SDS011;7322;50.872;4.386;2022-12-15T15:30:51;7.93;;;6.87;;
14472;SDS011;7322;50.872;4.386;2022-12-15T15:33:21;6.90;;;6.17;;
14472;SDS011;7322;50.872;4.386;2022-12-15T15:35:49;6.87;;;6.20;;
14472;SDS011;7322;50.872;4.386;2022-12-15T15:38:19;6.87;;;6.17;;
14472;SDS011;7322;50.872;4.386;2022-12-15T15:40:49;6.47;;;5.80;;
14472;SDS011;7322;50.872;4.386;2022-12-15T15:43:17;6.40;;;5.80;;
14472;SDS011;7322;50.872;4.386;2022-12-15T15:45:45;6.13;;;5.53;;
14472;SDS011;7322;50.872;4.386;2022-12-15T15:48:16;5.90;;;5.30;;
14472;SDS011;7322;50.872;4.386;2022-12-15T15:50:50;6.97;;;5.80;;
14472;SDS011;7322;50.872;4.386;2022-12-15T15:53:19;6.50;;;5.80;;
14472;SDS011;7322;50.872;4.386;2022-12-15T15:55:48;6.27;;;5.67;;
14472;SDS011;7322;50.872;4.386;2022-12-15T15:58:17;6.50;;;5.87;;
14472;SDS011;7322;50.872;4.386;2022-12-15T16:00:44;6.90;;;5.93;;
14472;SDS011;7322;50.872;4.386;2022-12-15T16:03:11;6.77;;;6.07;;
14472;SDS011;7322;50.872;4.386;2022-12-15T16:05:39;7.43;;;5.97;;
14472;SDS011;7322;50.872;4.386;2022-12-15T16:08:08;6.20;;;5.60;;
14472;SDS011;7322;50.872;4.386;2022-12-15T16:10:40;8.23;;;6.27;;
14472;SDS011;7322;50.872;4.386;2022-12-15T16:13:09;5.63;;;5.13;;
14472;SDS011;7322;50.872;4.386;2022-12-15T16:15:37;6.60;;;5.80;;
14472;SDS011;7322;50.872;4.386;2022-12-15T16:18:05;6.73;;;6.00;;
14472;SDS011;7322;50.872;4.386;2022-12-15T16:20:32;7.43;;;5.33;;
14472;SDS011;7322;50.872;4.386;2022-12-15T16:23:04;6.07;;;5.47;;
14472;SDS011;7322;50.872;4.386;2022-12-15T16:25:38;5.83;;;5.33;;
14472;SDS011;7322;50.872;4.386;2022-12-15T16:28:09;6.00;;;5.27;;
14472;SDS011;7322;50.872;4.386;2022-12-15T16:30:38;7.60;;;5.90;;
14472;SDS011;7322;50.872;4.386;2022-12-15T16:33:07;6.40;;;5.70;;
14472;SDS011;7322;50.872;4.386;2022-12-15T16:35:34;7.30;;;5.80;;
14472;SDS011;7322;50.872;4.386;2022-12-15T16:38:03;6.13;;;5.20;;
14472;SDS011;7322;50.872;4.386;2022-12-15T16:40:31;5.90;;;5.23;;
14472;SDS011;7322;50.872;4.386;2022-12-15T16:43:04;6.20;;;5.30;;
14472;SDS011;7322;50.872;4.386;2022-12-15T16:45:38;5.93;;;5.33;;
14472;SDS011;7322;50.872;4.386;2022-12-15T16:48:08;5.80;;;5.30;;
14472;SDS011;7322;50.872;4.386;2022-12-15T16:50:37;5.77;;;5.17;;
14472;SDS011;7322;50.872;4.386;2022-12-15T16:53:08;5.93;;;5.30;;
14472;SDS011;7322;50.872;4.386;2022-12-15T16:55:41;6.50;;;5.50;;
14472;SDS011;7322;50.872;4.386;2022-12-15T16:58:10;6.13;;;5.03;;
14472;SDS011;7322;50.872;4.386;2022-12-15T17:00:40;7.00;;;6.30;;
14472;SDS011;7322;50.872;4.386;2022-12-15T17:03:08;5.90;;;5.40;;